Time;durP1;ratioP1;P1;durP2;ratioP2;P2;SDS_P1;SDS_P2;PMS_P1;PMS_P2;Temp;Humidity;BMP_temperature;BMP_pressure;BME280_temperature;BME280_humidity;BME280_pressure;Samples;Min_cycle;Max_cycle;Signal;HPM_P1;HPM_P2
2023/08/28 03:54:13;;;;;;;14.57;7.65;;;14.30;99.90;;;14.76;72.80;100157.38;4989115;28;20055;-89
2023/08/28 03:56:40;;;;;;;9.23;7.45;;;14.30;99.90;;;14.76;72.52;100154.69;4960592;28;20038;-88
2023/08/28 03:59:29;;;;;;;8.88;6.78;;;14.30;99.90;;;14.76;72.75;100159.25;4960998;28;20035;-92
2023/08/28 04:15:39;;;;;;;9.75;8.00;;;14.30;99.90;;;14.75;73.12;100158.44;4990973;28;20066;-91
2023/08/28 04:18:08;;;;;;;10.45;8.15;;;14.20;99.90;;;14.73;72.77;100155.19;4990939;28;20051;-90
2023/08/28 04:20:35;;;;;;;11.13;8.32;;;14.30;99.90;;;14.74;73.10;100147.94;5007031;28;20049;-91
2023/08/28 04:23:05;;;;;;;13.38;8.23;;;14.30;99.90;;;14.70;73.04;100147.63;5001353;28;20066;-92
2023/08/28 04:25:32;;;;;;;18.02;9.55;;;14.20;99.90;;;14.69;73.13;100135.28;5012621;28;20074;-91
2023/08/28 04:28:00;;;;;;;13.70;8.63;;;14.20;99.90;;;14.69;73.25;100137.97;5011611;28;20128;-91
2023/08/28 04:30:27;;;;;;;11.45;8.10;;;14.20;99.90;;;14.70;73.38;100134.22;4988956;28;20042;-92
2023/08/28 04:33:14;;;;;;;12.07;8.00;;;14.30;99.90;;;14.72;73.23;100137.47;5001854;28;20046;-92
2023/08/28 04:46:26;;;;;;;14.27;7.75;;;14.20;99.90;;;14.65;73.22;100118.03;4993799;28;20054;-84
2023/08/28 04:48:55;;;;;;;19.33;8.23;;;14.20;99.90;;;14.64;73.44;100124.44;4993850;28;20082;-84
2023/08/28 04:51:22;;;;;;;11.52;8.15;;;14.20;99.90;;;14.63;73.21;100126.31;4993410;28;20076;-84
2023/08/28 04:53:50;;;;;;;11.15;7.65;;;14.20;99.90;;;14.63;73.25;100125.50;4992872;28;20058;-84
2023/08/28 04:56:18;;;;;;;13.30;8.02;;;14.20;99.90;;;14.63;73.57;100128.19;4992025;28;20077;-84
2023/08/28 04:58:46;;;;;;;12.57;8.30;;;14.20;99.90;;;14.62;73.57;100129.25;4991991;28;20575;-85
2023/08/28 05:01:13;;;;;;;13.00;8.13;;;14.20;99.90;;;14.65;73.71;100139.50;4992629;28;20133;-85
2023/08/28 05:03:40;;;;;;;14.77;8.38;;;14.20;99.90;;;14.65;73.41;100142.19;4993068;28;20148;-85
2023/08/28 05:06:09;;;;;;;12.38;7.82;;;14.20;99.90;;;14.66;73.56;100130.41;4993766;28;20467;-85
2023/08/28 05:08:36;;;;;;;14.00;8.27;;;14.20;99.90;;;14.70;73.87;100133.41;4985692;28;20133;-86
2023/08/28 05:11:04;;;;;;;10.85;7.60;;;14.30;99.90;;;14.71;74.17;100137.72;4993716;28;20093;-86
2023/08/28 05:13:31;;;;;;;15.40;8.48;;;14.60;99.90;;;14.75;74.27;100136.16;4993925;28;20145;-87
2023/08/28 05:15:59;;;;;;;17.08;7.85;;;14.30;99.90;;;14.73;73.96;100133.72;4996310;28;20054;-87
2023/08/28 05:18:26;;;;;;;12.32;8.02;;;14.30;99.90;;;14.73;74.31;100132.91;4997065;28;20046;-86
2023/08/28 05:20:55;;;;;;;14.52;8.63;;;14.30;99.90;;;14.70;74.51;100136.91;4996915;28;20050;-86
2023/08/28 05:23:25;;;;;;;12.63;8.60;;;14.40;99.90;;;14.75;74.60;100150.41;4995665;28;20106;-87
2023/08/28 05:25:52;;;;;;;11.77;8.25;;;14.40;99.90;;;14.80;74.54;100147.78;4988333;28;20039;-86
2023/08/28 05:28:19;;;;;;;14.27;7.90;;;14.40;99.90;;;14.84;74.63;100156.97;5006834;28;20331;-86
2023/08/28 05:30:47;;;;;;;12.77;7.65;;;14.50;99.90;;;14.83;74.80;100160.69;4977021;28;20042;-84
2023/08/28 05:33:14;;;;;;;8.93;6.85;;;14.40;99.90;;;14.88;74.90;100152.75;4994975;28;20038;-86
2023/08/28 05:35:43;;;;;;;11.27;8.00;;;14.50;99.90;;;14.96;74.63;100150.69;4992672;28;20111;-85
2023/08/28 05:38:11;;;;;;;11.43;8.25;;;14.60;99.90;;;15.00;74.75;100147.25;4993706;28;20972;-85
2023/08/28 05:40:40;;;;;;;11.23;8.20;;;14.60;99.90;;;15.04;74.75;100150.25;4987015;28;20472;-85
2023/08/28 05:43:08;;;;;;;15.82;7.93;;;14.60;99.90;;;15.06;74.82;100150.81;4993819;28;20049;-85
2023/08/28 05:45:36;;;;;;;10.38;7.32;;;14.70;99.90;;;15.11;74.71;100151.69;4993009;28;20650;-85
2023/08/28 05:48:03;;;;;;;10.30;7.68;;;14.70;99.90;;;15.11;74.74;100159.75;4990293;28;20070;-85
2023/08/28 05:50:30;;;;;;;11.10;7.65;;;14.80;99.90;;;15.19;75.01;100161.19;4992785;28;20746;-86
2023/08/28 05:52:58;;;;;;;14.43;8.57;;;14.90;99.90;;;15.24;75.16;100166.63;5009289;28;20508;-85
2023/08/28 05:55:26;;;;;;;12.27;8.52;;;15.00;99.90;;;15.26;75.38;100171.75;4992119;28;20058;-85
2023/08/28 05:57:54;;;;;;;11.20;8.27;;;15.10;99.90;;;15.20;75.48;100178.94;4990393;28;20116;-85
2023/08/28 06:00:22;;;;;;;13.00;8.27;;;15.00;99.90;;;15.21;75.34;100175.19;4976449;28;20070;-86
2023/08/28 06:02:49;;;;;;;11.85;8.50;;;15.00;99.90;;;15.23;75.75;100183.00;4992600;28;20396;-86
2023/08/28 06:05:17;;;;;;;13.32;8.10;;;15.00;99.90;;;15.24;75.51;100184.63;4993906;28;20046;-86
2023/08/28 06:07:44;;;;;;;12.82;8.57;;;15.00;99.90;;;15.26;75.47;100180.63;4994241;28;20043;-86
2023/08/28 06:10:16;;;;;;;11.98;7.78;;;15.00;99.90;;;15.27;75.71;100189.50;4993606;28;20094;-86
2023/08/28 06:12:44;;;;;;;13.32;8.68;;;15.00;99.90;;;15.27;75.97;100187.63;4993064;28;20062;-86
2023/08/28 06:15:14;;;;;;;13.32;8.25;;;15.00;99.90;;;15.26;76.57;100180.63;4993748;28;20482;-86
2023/08/28 06:17:42;;;;;;;13.05;8.05;;;15.00;99.90;;;15.23;77.15;100178.44;4978731;28;20046;-86
2023/08/28 06:20:11;;;;;;;13.68;8.25;;;15.00;99.90;;;15.28;76.79;100175.84;4995842;28;20065;-86
2023/08/28 06:22:38;;;;;;;10.85;7.95;;;15.00;99.90;;;15.35;76.96;100175.63;4991839;28;20500;-86
2023/08/28 06:25:08;;;;;;;11.75;8.10;;;15.10;99.90;;;15.32;77.21;100176.13;4993200;28;20050;-86
2023/08/28 06:27:35;;;;;;;13.00;8.85;;;15.10;99.90;;;15.39;77.27;100168.69;4993725;28;20038;-86
2023/08/28 06:30:04;;;;;;;11.77;8.38;;;15.10;99.90;;;15.48;77.69;100171.78;4993761;28;20042;-86
2023/08/28 06:32:34;;;;;;;13.50;8.07;;;15.30;99.90;;;15.50;77.99;100170.44;4969850;28;20050;-86
2023/08/28 06:35:02;;;;;;;12.77;9.15;;;15.40;99.90;;;15.57;78.35;100168.38;5007095;28;20140;-86
2023/08/28 06:37:29;;;;;;;11.85;8.85;;;15.50;99.90;;;15.62;78.00;100159.56;5009778;28;20046;-86
2023/08/28 06:39:56;;;;;;;10.65;7.80;;;15.50;99.90;;;15.61;77.51;100164.09;4993387;28;20150;-86
2023/08/28 06:42:24;;;;;;;15.05;9.18;;;15.60;99.90;;;15.69;77.36;100166.38;4991284;28;20142;-86
2023/08/28 06:44:51;;;;;;;13.60;8.30;;;15.60;99.90;;;15.76;77.07;100168.06;4991240;28;20129;-86
2023/08/28 06:47:19;;;;;;;12.73;8.48;;;15.70;99.90;;;15.81;76.97;100162.72;4991141;28;20042;-86
2023/08/28 06:49:48;;;;;;;12.90;8.13;;;15.70;99.90;;;15.89;76.85;100159.59;5006107;28;20050;-86
2023/08/28 06:52:15;;;;;;;12.43;7.88;;;15.80;99.90;;;15.92;76.84;100153.72;4991489;28;20117;-86
2023/08/28 06:54:42;;;;;;;12.23;8.07;;;15.90;99.90;;;15.96;77.11;100154.84;4993073;28;20138;-84
2023/08/28 06:57:10;;;;;;;11.85;7.95;;;15.90;99.90;;;16.05;76.60;100153.28;4993857;28;20148;-87
2023/08/28 06:59:37;;;;;;;13.60;9.00;;;16.00;99.90;;;16.13;76.69;100149.34;5001832;28;20081;-86
2023/08/28 07:02:05;;;;;;;14.52;8.88;;;16.00;99.90;;;16.20;76.72;100145.38;4992907;28;20414;-86
2023/08/28 07:04:32;;;;;;;11.15;8.18;;;16.10;99.90;;;16.26;76.54;100137.34;4991055;28;20089;-87
2023/08/28 07:07:00;;;;;;;15.70;9.68;;;16.20;99.90;;;16.28;76.28;100143.28;4993994;28;20046;-86
2023/08/28 07:09:28;;;;;;;14.40;8.32;;;16.20;99.90;;;16.30;76.58;100144.66;4986232;28;20090;-87
2023/08/28 07:11:55;;;;;;;12.40;8.07;;;16.30;99.90;;;16.37;75.96;100145.22;4991783;28;20514;-86
2023/08/28 07:14:22;;;;;;;12.75;8.27;;;16.30;99.90;;;16.45;75.46;100149.34;4993919;28;20090;-86
2023/08/28 07:16:49;;;;;;;16.15;9.18;;;16.40;99.90;;;16.47;76.35;100142.63;4993769;28;20057;-86
2023/08/28 07:19:17;;;;;;;16.42;9.13;;;16.40;99.90;;;16.54;76.10;100145.06;4996208;28;20058;-86
2023/08/28 07:21:44;;;;;;;18.25;9.93;;;16.50;99.90;;;16.60;75.55;100154.03;4994916;28;20082;-87
2023/08/28 07:24:15;;;;;;;16.95;9.60;;;16.60;99.90;;;16.67;76.07;100157.28;4995095;28;20495;-86
2023/08/28 07:26:43;;;;;;;;;;;16.70;99.90;;;16.73;76.09;100153.59;4995538;28;20149;-87
2023/08/28 07:29:10;;;;;;;17.27;10.02;;;16.70;99.90;;;16.75;76.26;100156.84;4993623;28;19925;-87
2023/08/28 07:31:37;;;;;;;15.75;10.00;;;16.70;99.90;;;16.78;76.00;100160.91;5011439;28;20054;-86
2023/08/28 07:34:05;;;;;;;19.02;10.48;;;16.80;99.90;;;16.80;75.91;100164.97;4995689;28;20794;-86
2023/08/28 07:36:33;;;;;;;16.20;10.52;;;16.80;99.90;;;16.79;76.60;100166.03;4980225;28;20069;-86
2023/08/28 07:39:00;;;;;;;15.60;9.32;;;16.80;99.90;;;16.76;76.59;100169.25;4995618;28;20133;-86
2023/08/28 07:41:29;;;;;;;16.13;9.40;;;16.80;99.90;;;16.76;76.91;100166.53;4995582;28;20085;-86
2023/08/28 07:43:56;;;;;;;17.60;9.85;;;16.80;99.90;;;16.79;77.07;100171.44;4994077;28;20154;-87
2023/08/28 07:46:23;;;;;;;17.33;11.02;;;16.80;99.90;;;16.84;76.74;100176.84;5009974;28;20478;-87
2023/08/28 07:48:50;;;;;;;18.83;11.10;;;16.90;99.90;;;16.89;76.73;100178.75;4994483;28;20489;-86
2023/08/28 07:51:18;;;;;;;16.80;10.13;;;16.90;99.90;;;16.94;76.99;100179.59;4994420;28;20200;-87
2023/08/28 07:53:45;;;;;;;20.17;9.07;;;17.00;99.90;;;17.02;76.97;100188.25;4993178;28;20134;-86
2023/08/28 07:56:12;;;;;;;16.52;9.30;;;17.10;99.90;;;16.98;75.88;100178.00;4994682;28;20052;-87
2023/08/28 07:58:42;;;;;;;17.52;9.50;;;17.10;99.90;;;17.03;76.30;100187.16;4979902;28;20125;-86
2023/08/28 08:01:11;;;;;;;16.48;9.85;;;17.10;99.90;;;17.03;77.17;100179.09;5013497;28;20049;-86
2023/08/28 08:03:39;;;;;;;17.13;10.18;;;17.10;99.90;;;16.98;76.32;100175.31;5016724;28;20045;-86
2023/08/28 08:06:08;;;;;;;18.25;10.20;;;17.00;99.90;;;16.98;76.66;100178.00;4998038;28;20049;-86
2023/08/28 08:08:35;;;;;;;17.58;8.95;;;17.00;99.90;;;16.96;76.65;100174.75;5006345;28;20042;-86
2023/08/28 08:11:02;;;;;;;15.23;9.52;;;17.00;99.90;;;16.99;76.95;100184.22;4982526;28;20074;-87
2023/08/28 08:13:30;;;;;;;19.25;8.88;;;17.00;99.90;;;17.02;77.03;100178.28;5004736;28;20042;-88
2023/08/28 08:15:58;;;;;;;17.73;9.57;;;17.00;99.90;;;17.05;76.84;100175.06;4996534;28;20145;-88
2023/08/28 08:18:26;;;;;;;17.40;10.00;;;17.00;99.90;;;16.98;76.54;100182.56;5007487;28;20085;-88
2023/08/28 08:20:53;;;;;;;23.38;11.35;;;17.00;99.90;;;17.01;77.04;100178.56;4996950;28;20084;-88
2023/08/28 08:23:20;;;;;;;18.75;10.85;;;17.10;99.90;;;17.05;77.26;100176.97;4997805;28;20038;-87
2023/08/28 08:25:47;;;;;;;16.52;9.43;;;17.10;99.90;;;17.03;77.04;100179.94;4996296;28;20065;-87
2023/08/28 08:28:16;;;;;;;14.00;10.38;;;17.10;99.90;;;17.02;77.92;100182.88;4995613;28;20065;-87
2023/08/28 08:30:43;;;;;;;15.70;9.88;;;17.10;99.90;;;17.05;78.33;100187.75;4981119;28;20077;-87
2023/08/28 08:33:12;;;;;;;13.80;9.30;;;17.10;99.90;;;17.09;77.52;100184.25;4995971;28;20132;-87
2023/08/28 08:35:40;;;;;;;12.52;8.80;;;17.10;99.90;;;17.10;77.67;100183.19;4992006;28;20049;-87
2023/08/28 08:38:07;;;;;;;11.88;8.38;;;17.20;99.90;;;17.09;77.08;100183.47;4996468;28;20046;-87
2023/08/28 08:40:40;;;;;;;14.48;10.02;;;17.10;99.90;;;17.10;76.64;100185.06;4980448;28;20471;-87
2023/08/28 08:43:08;;;;;;;11.77;9.57;;;17.10;99.90;;;17.12;76.92;100191.00;4995440;28;20460;-87
2023/08/28 08:45:38;;;;;;;18.13;11.15;;;17.20;99.90;;;17.11;76.41;100187.50;4979875;28;20050;-87
2023/08/28 08:48:08;;;;;;;14.05;10.77;;;17.20;99.90;;;17.00;75.10;100188.53;4996480;28;20077;-87
2023/08/28 08:50:38;;;;;;;14.65;10.57;;;17.10;99.90;;;16.90;76.63;100191.16;4996351;28;20046;-87
2023/08/28 08:53:13;;;;;;;16.63;11.60;;;16.90;99.90;;;16.89;76.10;100187.66;4995324;28;20057;-87
2023/08/28 08:55:43;;;;;;;14.90;11.02;;;16.90;99.90;;;16.93;76.85;100196.84;4996434;28;20085;-87
2023/08/28 08:58:14;;;;;;;16.73;11.73;;;16.90;99.90;;;16.98;77.57;100194.19;4995548;28;20049;-87
2023/08/28 09:00:43;;;;;;;15.50;10.60;;;17.00;99.90;;;17.03;77.43;100198.78;4988172;28;20046;-87
2023/08/28 09:03:11;;;;;;;15.75;10.75;;;17.10;99.90;;;17.12;77.30;100197.19;4979643;28;20046;-87
2023/08/28 09:05:42;;;;;;;21.05;11.00;;;17.20;99.90;;;17.20;76.59;100190.50;5012492;28;20046;-87
2023/08/28 09:08:11;;;;;;;16.40;10.45;;;17.30;99.90;;;17.25;77.33;100198.63;4974445;28;20128;-87
2023/08/28 09:10:38;;;;;;;18.02;11.65;;;17.30;99.90;;;17.30;77.39;100200.53;4993016;28;20053;-88
2023/08/28 09:13:06;;;;;;;19.65;14.18;;;17.40;99.90;;;17.28;76.24;100197.31;4977047;28;20141;-88
2023/08/28 09:15:33;;;;;;;18.35;14.05;;;17.40;99.90;;;17.37;76.40;100203.78;5010678;28;20157;-88
2023/08/28 09:18:02;;;;;;;16.27;11.63;;;17.50;99.90;;;17.50;76.62;100197.94;4994473;28;20121;-88
2023/08/28 09:20:29;;;;;;;14.88;10.27;;;17.70;99.90;;;17.61;75.40;100191.47;4987123;28;20047;-88
2023/08/28 09:22:58;;;;;;;17.30;11.15;;;17.80;99.90;;;17.71;75.52;100193.41;4993392;28;20078;-88
2023/08/28 09:25:26;;;;;;;19.95;13.05;;;17.90;99.90;;;17.78;75.10;100198.59;4996816;28;20097;-88
2023/08/28 09:27:56;;;;;;;16.73;12.27;;;18.00;99.90;;;17.83;75.75;100194.03;4994080;28;20038;-88
2023/08/28 09:30:32;;;;;;;16.30;9.80;;;18.10;99.90;;;17.88;74.35;100187.84;4988699;28;20062;-86
2023/08/28 09:33:01;;;;;;;15.02;10.15;;;18.10;99.90;;;17.88;73.88;100180.53;4989522;28;20077;-86
2023/08/28 09:35:30;;;;;;;13.65;9.35;;;18.20;99.90;;;17.89;71.90;100192.97;4991312;28;20042;-86
2023/08/28 09:38:00;;;;;;;13.77;8.90;;;18.10;99.90;;;17.86;72.63;100190.81;4986525;28;20043;-87
2023/08/28 09:40:31;;;;;;;11.23;8.30;;;18.10;99.90;;;17.77;72.16;100183.50;4993777;28;20120;-87
2023/08/28 09:42:59;;;;;;;14.68;8.15;;;18.00;99.90;;;17.74;72.94;100187.53;4995339;28;20066;-87
2023/08/28 09:45:32;;;;;;;12.20;7.93;;;17.90;99.90;;;17.74;72.71;100184.81;4995215;28;20045;-88
2023/08/28 09:47:59;;;;;;;12.63;7.43;;;17.90;99.90;;;17.75;72.49;100184.56;4989095;28;20058;-89
2023/08/28 09:50:31;;;;;;;11.13;6.40;;;17.90;99.90;;;17.75;71.28;100173.75;4991240;28;20054;-89
2023/08/28 09:53:08;;;;;;;;;;;17.90;99.90;;;17.76;71.07;100177.25;4996559;28;20587;-91
2023/08/28 09:55:39;;;;;;;10.50;5.35;;;17.90;99.90;;;17.74;70.49;100174.03;4994298;28;19921;-90
2023/08/28 09:58:11;;;;;;;10.70;6.30;;;17.90;99.90;;;17.78;71.59;100169.72;4991929;28;21434;-92
2023/08/28 10:00:40;;;;;;;9.52;5.35;;;17.90;99.90;;;17.80;70.16;100161.38;4995018;28;20070;-93
2023/08/28 10:03:09;;;;;;;8.95;4.85;;;18.00;99.90;;;17.83;67.47;100150.06;4988477;28;20049;-91
2023/08/28 10:05:38;;;;;;;9.15;5.50;;;18.00;99.90;;;17.84;68.46;100151.66;4990893;28;20050;-92
2023/08/28 10:08:10;;;;;;;8.38;4.68;;;18.00;99.90;;;17.89;68.03;100144.38;4992900;28;20050;-90
2023/08/28 10:10:41;;;;;;;8.75;4.85;;;18.10;99.90;;;17.92;68.03;100149.25;4992767;28;20042;-91
2023/08/28 10:13:14;;;;;;;10.75;5.30;;;18.10;99.90;;;17.97;70.58;100154.66;4988165;28;20049;-91
2023/08/28 10:15:47;;;;;;;7.20;4.80;;;18.20;99.90;;;17.98;68.99;100150.06;4984665;28;20502;-91
2023/08/28 10:18:25;;;;;;;11.85;5.43;;;18.20;99.90;;;17.99;68.92;100146.28;4992223;28;20073;-89
2023/08/28 10:20:54;;;;;;;11.13;5.30;;;18.20;99.90;;;18.01;69.58;100146.84;4997431;28;20070;-89
2023/08/28 10:23:24;;;;;;;11.02;5.53;;;18.20;99.90;;;18.05;69.01;100147.09;4990971;28;20053;-90
2023/08/28 10:25:54;;;;;;;10.05;5.40;;;18.20;99.90;;;18.08;70.10;100146.56;4990975;28;20050;-89
2023/08/28 10:28:22;;;;;;;12.15;4.90;;;18.30;99.90;;;18.08;69.64;100141.19;4987007;28;20034;-90
2023/08/28 10:30:51;;;;;;;9.60;5.20;;;18.30;99.90;;;18.08;68.62;100144.69;4991816;28;20073;-90
2023/08/28 10:33:20;;;;;;;10.40;5.88;;;18.30;99.90;;;18.09;69.30;100142.78;4991928;28;20034;-90
2023/08/28 10:35:53;;;;;;;8.77;5.75;;;18.30;99.90;;;18.07;70.22;100142.25;4991888;28;20050;-90
2023/08/28 10:38:23;;;;;;;8.35;5.45;;;18.30;99.90;;;18.08;70.35;100146.56;4990655;28;20058;-90
2023/08/28 10:40:53;;;;;;;11.38;6.07;;;18.30;99.90;;;18.14;69.31;100156.28;4992340;28;20499;-90
2023/08/28 10:43:22;;;;;;;11.07;6.00;;;18.30;99.90;;;18.17;69.69;100142.28;5007568;28;20062;-90
2023/08/28 10:45:51;;;;;;;10.55;6.00;;;18.30;99.90;;;18.14;68.30;100135.50;4993660;28;20058;-90
2023/08/28 10:48:21;;;;;;;12.10;6.35;;;18.40;99.90;;;18.21;69.79;100144.16;4991732;28;20070;-90
2023/08/28 10:50:48;;;;;;;14.77;7.32;;;18.40;99.90;;;18.27;70.23;100148.47;4991911;28;20070;-90
2023/08/28 10:53:18;;;;;;;11.18;6.90;;;18.50;99.90;;;18.31;68.80;100150.66;4991404;28;20132;-90
2023/08/28 10:55:56;;;;;;;12.10;6.70;;;18.50;99.90;;;18.31;68.71;100142.53;4991388;28;20053;-89
2023/08/28 10:58:25;;;;;;;11.52;7.00;;;18.60;99.90;;;18.35;69.61;100146.31;4985408;28;20046;-91
2023/08/28 11:01:14;;;;;;;12.48;8.40;;;18.60;99.90;;;18.38;68.71;100151.16;4974658;28;20087;-91
2023/08/28 11:03:58;;;;;;;12.82;7.97;;;18.70;99.90;;;18.39;67.85;100144.69;4998107;28;20090;-91
2023/08/28 11:06:42;;;;;;;11.85;7.07;;;18.70;99.90;;;18.39;66.48;100147.38;4982813;28;20057;-91
2023/08/28 11:09:33;;;;;;;16.13;9.00;;;18.60;99.90;;;18.36;66.46;100140.66;4987630;28;20046;-91
2023/08/28 11:12:42;;;;;;;18.70;9.68;;;18.60;99.90;;;18.30;66.97;100139.03;4987408;28;20050;-91
2023/08/28 11:18:28;;;;;;;14.13;7.90;;;18.70;99.90;;;18.56;68.82;100139.00;5071316;28;20418;-81
2023/08/28 11:20:58;;;;;;;13.77;7.65;;;18.90;99.90;;;18.60;67.59;100140.91;5043234;28;20056;-81
2023/08/28 11:23:33;;;;;;;14.70;7.15;;;18.90;99.90;;;18.60;65.56;100137.41;5047982;28;20517;-81
2023/08/28 11:26:04;;;;;;;14.02;7.40;;;18.90;99.90;;;18.61;68.00;100145.22;5047851;28;20048;-81
2023/08/28 11:28:43;;;;;;;14.20;7.68;;;18.90;99.90;;;18.60;64.76;100142.78;5040355;28;20037;-81
2023/08/28 11:31:10;;;;;;;14.18;7.95;;;18.90;99.90;;;18.56;65.52;100158.72;5039967;28;20154;-81
2023/08/28 11:33:42;;;;;;;12.35;6.80;;;18.80;99.90;;;18.53;65.79;100160.06;5043638;28;20168;-81
2023/08/28 11:36:11;;;;;;;15.00;7.20;;;18.70;99.90;;;18.51;66.14;100167.66;5045229;28;20668;-81
2023/08/28 11:38:40;;;;;;;10.35;7.07;;;18.70;99.90;;;18.53;66.72;100165.47;5035835;28;20038;-81
2023/08/28 11:41:10;;;;;;;12.90;7.55;;;18.70;99.90;;;18.57;67.06;100170.34;5030280;28;20057;-79
2023/08/28 11:43:39;;;;;;;13.70;7.20;;;18.70;99.90;;;18.54;64.66;100155.47;5044128;28;20041;-78
2023/08/28 11:46:07;;;;;;;11.57;7.00;;;18.70;99.90;;;18.59;65.81;100157.34;5034288;28;20053;-81
2023/08/28 11:48:37;;;;;;;12.48;6.88;;;18.80;99.90;;;18.64;66.52;100152.78;5037493;28;20041;-79
2023/08/28 11:51:07;;;;;;;11.95;6.28;;;18.90;99.90;;;18.73;65.17;100163.84;5028951;28;20475;-78
2023/08/28 11:53:37;;;;;;;11.82;6.43;;;18.90;99.90;;;18.77;65.07;100159.53;5040126;28;20041;-79
2023/08/28 11:56:05;;;;;;;11.90;6.50;;;19.00;99.90;;;18.76;65.89;100161.44;5032107;28;20049;-79
2023/08/28 11:58:34;;;;;;;10.55;6.05;;;19.00;99.90;;;18.77;65.27;100175.75;5039030;28;20494;-80
2023/08/28 12:01:05;;;;;;;9.13;5.93;;;19.00;99.90;;;18.75;62.27;100177.91;5040128;28;20088;-80
2023/08/28 12:03:33;;;;;;;10.63;5.93;;;18.90;99.50;;;18.72;62.31;100181.16;5039558;28;20037;-80
2023/08/28 12:06:08;;;;;;;7.60;4.97;;;18.90;99.70;;;18.73;64.17;100171.97;5033551;28;20569;-80
2023/08/28 12:08:37;;;;;;;9.20;5.45;;;18.90;99.90;;;18.73;61.94;100175.47;5055635;28;20103;-79
2023/08/28 12:11:07;;;;;;;12.02;6.32;;;18.90;99.30;;;18.75;62.79;100167.91;5038608;28;20140;-80
2023/08/28 12:13:34;;;;;;;8.73;5.40;;;18.90;99.90;;;18.79;64.85;100168.19;5045876;28;20076;-79
2023/08/28 12:16:15;;;;;;;9.68;6.22;;;19.00;99.90;;;18.82;62.89;100164.13;5034413;28;20054;-79
2023/08/28 12:18:47;;;;;;;9.15;5.53;;;19.00;99.90;;;18.84;61.36;100162.78;5044816;28;20029;-79
2023/08/28 12:21:17;;;;;;;9.63;5.55;;;19.00;98.70;;;18.89;63.41;100161.97;5034645;28;20525;-80
2023/08/28 12:23:51;;;;;;;20.58;6.10;;;19.10;99.90;;;18.93;63.32;100157.59;5042048;28;20079;-79
2023/08/28 12:26:24;;;;;;;9.95;5.75;;;19.20;99.90;;;18.94;63.48;100156.53;5034541;28;20060;-80
2023/08/28 12:28:52;;;;;;;11.55;6.03;;;19.10;99.90;;;18.95;61.84;100161.66;5021498;28;20050;-79
2023/08/28 12:31:27;;;;;;;9.93;6.35;;;19.20;99.30;;;18.96;62.57;100154.34;5018398;28;20136;-79
2023/08/28 12:33:55;;;;;;;11.10;6.05;;;19.20;99.40;;;18.95;61.78;100156.25;5027171;28;20033;-80
2023/08/28 12:36:35;;;;;;;8.20;5.30;;;19.20;98.70;;;18.99;64.68;100151.94;5019998;28;20048;-79
2023/08/28 12:39:05;;;;;;;10.43;6.80;;;19.20;99.90;;;19.01;63.85;100155.16;5036746;28;20494;-80
2023/08/28 12:41:35;;;;;;;11.20;6.32;;;19.20;99.90;;;18.97;61.97;100150.56;5023145;28;20036;-79
2023/08/28 12:44:03;;;;;;;9.07;5.88;;;19.20;98.70;;;18.96;63.83;100146.25;5031296;28;20044;-80
2023/08/28 12:46:30;;;;;;;8.15;5.65;;;19.20;99.90;;;18.97;63.98;100147.88;5026942;28;20506;-80
2023/08/28 12:48:58;;;;;;;9.30;5.50;;;19.10;99.90;;;19.01;65.14;100149.75;5016147;28;20494;-79
2023/08/28 12:51:26;;;;;;;9.65;5.38;;;19.20;99.90;;;19.05;65.17;100144.59;5033081;28;20045;-80
2023/08/28 12:53:54;;;;;;;9.35;6.00;;;19.20;99.90;;;19.08;64.24;100145.94;5031272;28;20413;-79
2023/08/28 12:56:22;;;;;;;9.98;5.78;;;19.30;99.90;;;19.06;63.19;100146.22;5039055;28;20050;-80
2023/08/28 12:58:49;;;;;;;9.63;5.50;;;19.20;99.90;;;19.06;63.02;100148.13;5035481;28;20076;-79
2023/08/28 13:01:17;;;;;;;8.48;5.53;;;19.20;99.90;;;19.04;63.08;100143.81;5038631;28;20131;-80
2023/08/28 13:03:46;;;;;;;8.30;5.25;;;19.20;99.90;;;19.01;65.51;100138.94;5041787;28;20041;-80
2023/08/28 13:06:13;;;;;;;8.63;5.60;;;19.20;99.90;;;19.01;66.94;100147.03;5026914;28;20049;-80
2023/08/28 13:08:41;;;;;;;11.43;5.82;;;19.10;99.90;;;19.01;64.80;100144.34;5031148;28;20103;-79
2023/08/28 13:11:09;;;;;;;8.38;5.60;;;19.20;99.90;;;19.01;63.02;100138.94;5025448;28;20046;-79
2023/08/28 13:13:37;;;;;;;8.25;5.82;;;19.20;99.90;;;19.03;61.55;100141.34;5023495;28;20507;-79
2023/08/28 13:16:05;;;;;;;8.82;5.50;;;19.20;98.70;;;19.07;64.51;100139.72;5030492;28;20099;-79
2023/08/28 13:18:32;;;;;;;8.88;5.82;;;19.30;99.90;;;19.14;63.84;100142.16;5026420;28;20582;-79
2023/08/28 13:21:00;;;;;;;12.57;6.35;;;19.30;99.90;;;19.18;64.76;100137.78;5034741;28;20493;-79
2023/08/28 13:23:27;;;;;;;8.02;5.95;;;19.40;99.90;;;19.17;63.59;100128.06;5028089;28;20072;-79
2023/08/28 13:25:55;;;;;;;11.48;5.85;;;19.40;99.90;;;19.17;63.55;100126.16;5026881;28;20411;-79
2023/08/28 13:28:24;;;;;;;9.10;5.43;;;19.40;99.90;;;19.18;63.16;100116.16;5005052;28;20046;-79
2023/08/28 13:30:51;;;;;;;9.13;5.05;;;19.50;99.90;;;19.17;63.11;100111.84;5030638;28;20593;-79
2023/08/28 13:33:20;;;;;;;7.35;4.72;;;19.40;99.90;;;19.19;61.56;100115.09;5033646;28;20076;-79
2023/08/28 13:35:49;;;;;;;9.27;4.90;;;19.40;98.20;;;19.21;61.53;100115.63;5028262;28;20060;-79
2023/08/28 13:38:16;;;;;;;7.22;4.70;;;19.40;98.50;;;19.25;61.83;100117.50;5029782;28;20041;-79
2023/08/28 13:40:44;;;;;;;7.70;3.55;;;19.50;98.90;;;19.32;60.42;100114.47;5020958;28;20045;-79
2023/08/28 13:43:11;;;;;;;6.43;3.88;;;19.50;97.20;;;19.40;61.92;100122.00;5042273;28;20030;-79
2023/08/28 13:45:40;;;;;;;8.82;4.00;;;19.60;98.50;;;19.44;61.19;100116.88;5023883;28;20656;-79
2023/08/28 13:48:08;;;;;;;9.80;3.90;;;19.70;98.00;;;19.39;59.17;100123.09;5033558;28;20114;-79
2023/08/28 13:50:37;;;;;;;6.18;3.33;;;19.60;95.40;;;19.40;60.53;100126.63;5022633;28;20049;-79
2023/08/28 13:53:04;;;;;;;7.90;3.45;;;19.60;96.70;;;19.42;60.92;100133.38;5032735;28;20037;-79
2023/08/28 13:55:32;;;;;;;6.90;3.10;;;19.60;97.10;;;19.49;60.73;100136.59;5036579;28;20148;-79
2023/08/28 13:57:59;;;;;;;9.73;3.20;;;19.70;96.80;;;19.53;61.59;100124.13;5026558;28;20042;-79
2023/08/28 14:00:26;;;;;;;5.65;3.10;;;19.80;98.10;;;19.55;60.92;100129.25;5018943;28;20137;-79
2023/08/28 14:02:55;;;;;;;6.15;2.60;;;19.80;97.10;;;19.55;58.43;100129.25;5031672;28;20433;-79
2023/08/28 14:05:22;;;;;;;8.18;2.55;;;19.80;94.60;;;19.55;59.22;100121.94;5029616;28;20053;-79
2023/08/28 14:07:49;;;;;;;4.35;2.15;;;19.80;94.80;;;19.53;56.53;100126.81;5027328;28;20533;-79
2023/08/28 14:10:17;;;;;;;6.10;2.70;;;19.80;92.80;;;19.52;58.17;100127.09;5029002;28;20123;-79
2023/08/28 14:12:44;;;;;;;4.28;2.30;;;19.80;93.90;;;19.52;60.32;100130.63;5027953;28;20100;-79
2023/08/28 14:15:12;;;;;;;3.75;2.00;;;19.80;96.30;;;19.52;59.85;100124.38;5028871;28;20041;-79
2023/08/28 14:17:39;;;;;;;6.45;2.30;;;19.80;95.80;;;19.50;59.05;100115.75;5022475;28;20442;-79
2023/08/28 14:20:09;;;;;;;7.82;2.70;;;19.70;95.00;;;19.49;59.95;100120.34;5024277;28;20037;-79
2023/08/28 14:22:37;;;;;;;6.30;3.10;;;19.60;95.80;;;19.48;60.02;100115.22;5014032;28;21672;-80
2023/08/28 14:25:05;;;;;;;4.85;2.90;;;19.60;96.20;;;19.47;60.98;100122.53;5012907;28;20060;-79
2023/08/28 14:27:33;;;;;;;5.80;2.70;;;19.60;97.50;;;19.46;61.00;100122.78;5012850;28;20038;-79
2023/08/28 14:30:01;;;;;;;5.32;2.47;;;19.60;97.00;;;19.45;60.40;100121.19;5011861;28;20046;-79
2023/08/28 14:32:29;;;;;;;6.13;2.90;;;19.60;97.00;;;19.46;61.06;100128.19;5016058;28;20057;-79
2023/08/28 14:34:56;;;;;;;7.47;3.13;;;19.60;97.50;;;19.43;62.53;100124.19;5011978;28;20041;-79
2023/08/28 14:37:25;;;;;;;5.63;3.25;;;19.60;99.20;;;19.41;63.71;100115.50;5021212;28;20127;-79